createdAt,value
2023-05-10T00:00:36.624Z,5.32
2023-05-10T00:05:39.416Z,7.20
2023-05-10T00:10:43.665Z,11.55
2023-05-10T00:15:46.380Z,7.13
2023-05-10T00:20:49.785Z,7.18
2023-05-10T00:25:54.069Z,4.65
2023-05-10T00:30:56.891Z,6.40
2023-05-10T00:35:59.700Z,4.70
2023-05-10T00:41:05.106Z,5.75
2023-05-10T00:46:10.688Z,5.50
2023-05-10T00:51:15.277Z,5.95
2023-05-10T00:56:21.442Z,5.93
2023-05-10T01:01:24.290Z,7.18
2023-05-10T01:06:28.716Z,6.70
2023-05-10T01:11:32.925Z,8.07
2023-05-10T01:16:42.349Z,5.47
2023-05-10T01:21:55.205Z,6.55
2023-05-10T01:27:27.283Z,6.50
2023-05-10T01:32:37.928Z,5.07
2023-05-10T01:37:46.390Z,5.53
2023-05-10T01:42:53.669Z,6.57
2023-05-10T01:48:06.470Z,6.63
2023-05-10T01:53:12.135Z,6.43
2023-05-10T01:58:17.431Z,7.45
2023-05-10T02:03:24.182Z,6.53
2023-05-10T02:08:28.307Z,9.27
2023-05-10T02:13:34.129Z,8.65
2023-05-10T02:18:38.636Z,6.10
2023-05-10T02:23:42.125Z,6.28
2023-05-10T02:28:45.928Z,8.32
2023-05-10T02:33:51.001Z,8.05
2023-05-10T02:38:55.683Z,7.38
2023-05-10T02:44:03.613Z,7.40
2023-05-10T02:49:07.844Z,5.80
2023-05-10T02:54:14.556Z,6.15
2023-05-10T02:59:17.324Z,6.07
2023-05-10T03:04:21.581Z,6.85
2023-05-10T03:09:25.743Z,5.18
2023-05-10T03:14:44.293Z,8.32
2023-05-10T03:19:55.272Z,6.88
2023-05-10T03:25:00.486Z,7.13
2023-05-10T03:30:09.465Z,5.57
2023-05-10T03:35:15.252Z,6.03
2023-05-10T03:40:18.550Z,6.53
2023-05-10T03:45:21.771Z,6.28
2023-05-10T03:50:27.142Z,5.68
2023-05-10T03:55:30.498Z,7.07
2023-05-10T04:00:33.860Z,7.85
2023-05-10T04:05:38.741Z,6.13
2023-05-10T04:10:41.630Z,5.85
2023-05-10T04:15:44.711Z,7.38
2023-05-10T04:20:48.798Z,5.75
2023-05-10T04:25:52.008Z,5.72
2023-05-10T04:30:54.915Z,9.77
2023-05-10T04:36:00.974Z,6.80
2023-05-10T04:41:07.953Z,8.68
2023-05-10T04:46:10.834Z,5.88
2023-05-10T04:51:15.036Z,6.07
2023-05-10T04:56:18.049Z,6.65
2023-05-10T05:01:20.850Z,7.72
2023-05-10T05:06:25.892Z,7.25
2023-05-10T05:11:28.612Z,7.25
2023-05-10T05:16:33.049Z,5.30
2023-05-10T05:21:37.201Z,8.13
2023-05-10T05:26:39.938Z,8.38
2023-05-10T05:31:42.681Z,8.43
2023-05-10T05:36:47.125Z,6.05
2023-05-10T05:41:49.908Z,11.73
2023-05-10T05:46:52.701Z,9.05
2023-05-10T05:52:01.057Z,10.45
2023-05-10T05:57:03.859Z,8.88
2023-05-10T06:02:07.381Z,5.97
2023-05-10T06:07:11.535Z,7.22
2023-05-10T06:12:14.331Z,6.63
2023-05-10T06:17:17.305Z,6.63
2023-05-10T06:22:23.540Z,6.82
2023-05-10T06:27:26.893Z,6.32
2023-05-10T06:32:29.790Z,7.15
2023-05-10T06:37:34.178Z,6.97
2023-05-10T06:42:36.939Z,7.15
2023-05-10T06:47:39.910Z,6.00
2023-05-10T06:52:44.516Z,8.35
2023-05-10T06:57:47.228Z,6.75
2023-05-10T07:02:50.086Z,8.38
2023-05-10T07:07:54.260Z,7.13
2023-05-10T07:12:57.146Z,12.57
2023-05-10T07:18:00.175Z,5.90
2023-05-10T07:23:04.491Z,7.90
2023-05-10T07:28:07.312Z,6.57
2023-05-10T07:33:10.952Z,7.00
2023-05-10T07:38:16.249Z,8.20
2023-05-10T07:43:19.135Z,6.57
2023-05-10T07:48:21.938Z,6.75
2023-05-10T07:53:27.103Z,5.80
2023-05-10T07:58:30.048Z,8.15
2023-05-10T08:03:32.854Z,6.65
2023-05-10T08:08:37.032Z,7.20
2023-05-10T08:13:39.927Z,8.93
2023-05-10T08:18:42.818Z,7.43
2023-05-10T08:23:47.018Z,7.28
2023-05-10T08:28:49.864Z,7.75
2023-05-10T08:33:53.590Z,5.82
2023-05-10T08:38:57.824Z,8.02
2023-05-10T08:44:02.491Z,6.93
2023-05-10T08:49:06.609Z,5.88
2023-05-10T08:54:11.433Z,10.50
2023-05-10T08:59:15.153Z,7.32
2023-05-10T09:04:18.668Z,7.72
2023-05-10T09:09:23.750Z,8.15
2023-05-10T09:14:27.047Z,8.77
2023-05-10T09:19:30.177Z,10.23
2023-05-10T09:24:34.333Z,9.90
2023-05-10T09:29:44.831Z,8.73
2023-05-10T09:34:52.002Z,8.98
2023-05-10T09:39:56.454Z,6.43
2023-05-10T09:45:02.880Z,9.95
2023-05-10T09:50:06.631Z,8.35
2023-05-10T09:55:11.616Z,9.75
2023-05-10T10:00:21.041Z,11.00
2023-05-10T10:05:30.383Z,8.43
2023-05-10T10:10:35.824Z,7.75
2023-05-10T10:15:39.058Z,9.15
2023-05-10T10:20:42.360Z,8.18
2023-05-10T10:25:49.285Z,9.13
2023-05-10T10:30:56.295Z,11.05
2023-05-10T10:36:02.148Z,9.45
2023-05-10T10:41:11.433Z,10.90
2023-05-10T10:46:15.555Z,10.80
2023-05-10T10:51:18.665Z,15.27
2023-05-10T10:56:25.232Z,11.23
2023-05-10T11:01:35.282Z,9.82
2023-05-10T11:06:41.480Z,11.60
2023-05-10T11:11:56.120Z,12.07
2023-05-10T11:16:59.309Z,10.55
2023-05-10T11:22:15.536Z,11.30
2023-05-10T11:27:20.642Z,9.32
2023-05-10T11:32:24.108Z,11.43
2023-05-10T11:37:33.276Z,12.93
2023-05-10T11:42:39.097Z,11.02
2023-05-10T11:47:44.238Z,10.70
2023-05-10T11:52:47.399Z,14.27
2023-05-10T11:57:54.150Z,12.40
2023-05-10T12:02:57.173Z,13.30
2023-05-10T12:08:13.388Z,13.30
2023-05-10T12:13:17.683Z,12.85
2023-05-10T12:18:25.877Z,11.15
2023-05-10T12:23:28.752Z,10.82
2023-05-10T12:28:34.328Z,9.68
2023-05-10T12:33:42.684Z,11.93
2023-05-10T12:38:49.034Z,9.75
2023-05-10T12:43:53.613Z,7.50
2023-05-10T12:49:08.016Z,9.98
2023-05-10T12:54:12.357Z,11.63
2023-05-10T12:59:16.583Z,9.13
2023-05-10T13:04:19.504Z,8.63
2023-05-10T13:09:22.533Z,8.95
2023-05-10T13:14:26.961Z,9.90
2023-05-10T13:19:29.881Z,8.30
2023-05-10T13:24:32.848Z,7.88
2023-05-10T13:29:37.489Z,8.88
2023-05-10T13:34:43.361Z,10.02
2023-05-10T13:39:46.380Z,9.48
2023-05-10T13:44:50.774Z,10.05
2023-05-10T13:49:53.780Z,9.45
2023-05-10T13:54:56.997Z,11.23
2023-05-10T14:00:01.448Z,8.25
2023-05-10T14:05:11.221Z,10.57
2023-05-10T14:10:14.103Z,9.32
2023-05-10T14:15:18.655Z,9.32
2023-05-10T14:20:21.638Z,8.23
2023-05-10T14:25:25.306Z,8.20
2023-05-10T14:30:29.532Z,10.48
2023-05-10T14:35:32.990Z,8.45
2023-05-10T14:40:35.866Z,9.93
2023-05-10T14:45:40.035Z,7.40
2023-05-10T14:50:42.877Z,9.68
2023-05-10T14:55:45.624Z,10.90
2023-05-10T15:00:49.744Z,9.02
2023-05-10T15:05:54.030Z,9.52
2023-05-10T15:10:57.290Z,8.75
2023-05-10T15:16:02.048Z,8.27
2023-05-10T15:21:04.948Z,9.65
2023-05-10T15:26:07.841Z,9.57
2023-05-10T15:31:12.211Z,9.30
2023-05-10T15:36:15.159Z,10.13
2023-05-10T15:41:19.134Z,7.75
2023-05-10T15:46:23.871Z,9.32
2023-05-10T15:51:26.902Z,9.43
2023-05-10T15:56:29.815Z,16.90
2023-05-10T16:01:34.086Z,11.27
2023-05-10T16:06:38.204Z,23.00
2023-05-10T16:11:42.099Z,10.70
2023-05-10T16:16:47.629Z,9.60
2023-05-10T16:21:51.273Z,11.57
2023-05-10T16:26:54.476Z,12.20
2023-05-10T16:31:58.660Z,9.18
2023-05-10T16:37:01.417Z,9.10
2023-05-10T16:42:04.396Z,9.13
2023-05-10T16:47:08.747Z,7.93
2023-05-10T16:52:11.662Z,13.10
2023-05-10T16:57:14.605Z,12.70
2023-05-10T17:02:18.809Z,10.00
2023-05-10T17:07:26.132Z,9.18
2023-05-10T17:12:29.276Z,7.57
2023-05-10T17:17:34.299Z,10.23
2023-05-10T17:22:37.217Z,6.47
2023-05-10T17:27:40.450Z,8.60
2023-05-10T17:32:44.746Z,7.40
2023-05-10T17:37:47.749Z,9.55
2023-05-10T17:42:50.635Z,7.68
2023-05-10T17:47:55.011Z,8.23
2023-05-10T17:52:57.988Z,10.05
2023-05-10T17:58:00.998Z,8.45
2023-05-10T18:03:06.317Z,9.30
2023-05-10T18:08:09.762Z,9.30
2023-05-10T18:13:12.774Z,8.07
2023-05-10T18:18:17.648Z,7.68
2023-05-10T18:23:20.944Z,10.05
2023-05-10T18:28:24.437Z,8.45
2023-05-10T18:33:28.625Z,10.57
2023-05-10T18:38:31.808Z,9.82
2023-05-10T18:43:34.870Z,10.43
2023-05-10T18:48:39.264Z,10.15
2023-05-10T18:53:42.053Z,10.18
2023-05-10T18:58:45.504Z,8.80
2023-05-10T19:03:49.764Z,11.27
2023-05-10T19:08:52.675Z,9.13
2023-05-10T19:13:55.576Z,7.40
2023-05-10T19:19:01.214Z,6.28
2023-05-10T19:24:04.518Z,12.70
2023-05-10T19:29:07.718Z,5.70
2023-05-10T19:34:11.935Z,6.63
2023-05-10T19:39:14.822Z,7.05
2023-05-10T19:44:20.581Z,7.25
2023-05-10T19:49:26.481Z,6.80
2023-05-10T19:54:29.945Z,7.70
2023-05-10T19:59:32.760Z,7.15
2023-05-10T20:04:37.119Z,7.22
2023-05-10T20:09:39.992Z,7.65
2023-05-10T20:14:42.744Z,7.60
2023-05-10T20:19:46.925Z,9.07
2023-05-10T20:24:49.738Z,9.30
2023-05-10T20:29:53.159Z,12.10
2023-05-10T20:34:57.410Z,11.57
2023-05-10T20:40:00.235Z,11.60
2023-05-10T20:45:03.310Z,12.50
2023-05-10T20:50:08.708Z,11.98
2023-05-10T20:55:11.504Z,11.07
2023-05-10T21:00:15.597Z,11.98
2023-05-10T21:05:20.008Z,11.68
2023-05-10T21:10:22.831Z,14.57
2023-05-10T21:15:25.930Z,13.93
2023-05-10T21:20:32.384Z,16.70
2023-05-10T21:25:35.168Z,16.92
2023-05-10T21:30:37.880Z,17.88
2023-05-10T21:35:43.000Z,18.08
2023-05-10T21:40:46.163Z,21.30
2023-05-10T21:45:49.007Z,17.48
2023-05-10T21:50:53.260Z,19.25
2023-05-10T21:55:56.283Z,17.85
2023-05-10T22:00:59.134Z,16.67
2023-05-10T22:06:03.328Z,16.88
2023-05-10T22:11:06.192Z,17.80
2023-05-10T22:16:08.951Z,19.60
2023-05-10T22:21:13.083Z,16.98
2023-05-10T22:26:15.885Z,16.73
2023-05-10T22:31:18.741Z,18.80
2023-05-10T22:36:22.960Z,19.25
2023-05-10T22:41:26.293Z,21.70
2023-05-10T22:46:29.598Z,23.50
2023-05-10T22:51:33.857Z,27.50
2023-05-10T22:56:36.650Z,25.90
2023-05-10T23:01:39.497Z,21.42
2023-05-10T23:06:43.611Z,21.13
2023-05-10T23:11:46.415Z,23.02
2023-05-10T23:16:49.115Z,22.77
2023-05-10T23:21:53.200Z,22.88
2023-05-10T23:26:56.019Z,25.90
2023-05-10T23:31:58.796Z,25.92
2023-05-10T23:37:03.130Z,25.33
2023-05-10T23:42:06.417Z,24.27
2023-05-10T23:47:09.326Z,26.60
2023-05-10T23:52:13.982Z,25.73
2023-05-10T23:57:16.775Z,30.48
